sensor_id;sensor_type;location;lat;lon;timestamp;temperature;humidity
15296;DHT22;7749;49.964;7.890;2023-05-20T00:00:55;15.00;1.00
15296;DHT22;7749;49.964;7.890;2023-05-20T00:03:22;15.00;1.00
15296;DHT22;7749;49.964;7.890;2023-05-20T00:05:50;14.90;1.00
15296;DHT22;7749;49.964;7.890;2023-05-20T00:08:21;14.90;1.00
15296;DHT22;7749;49.964;7.890;2023-05-20T00:10:51;14.90;29.50
15296;DHT22;7749;49.964;7.890;2023-05-20T00:13:18;14.90;99.90
15296;DHT22;7749;49.964;7.890;2023-05-20T00:15:46;14.80;63.00
15296;DHT22;7749;49.964;7.890;2023-05-20T00:18:13;14.90;99.90
15296;DHT22;7749;49.964;7.890;2023-05-20T00:20:40;14.80;99.90
15296;DHT22;7749;49.964;7.890;2023-05-20T00:23:08;14.80;1.00
15296;DHT22;7749;49.964;7.890;2023-05-20T00:25:38;14.80;99.90
15296;DHT22;7749;49.964;7.890;2023-05-20T00:28:05;14.70;99.90
15296;DHT22;7749;49.964;7.890;2023-05-20T00:30:32;14.60;1.00
15296;DHT22;7749;49.964;7.890;2023-05-20T00:33:00;14.50;1.00
15296;DHT22;7749;49.964;7.890;2023-05-20T00:35:28;14.40;1.00
15296;DHT22;7749;49.964;7.890;2023-05-20T00:37:59;14.40;99.90
15296;DHT22;7749;49.964;7.890;2023-05-20T00:40:27;14.40;99.90
15296;DHT22;7749;49.964;7.890;2023-05-20T00:42:55;14.30;99.90
15296;DHT22;7749;49.964;7.890;2023-05-20T00:45:22;14.20;99.90
15296;DHT22;7749;49.964;7.890;2023-05-20T00:47:50;14.30;99.90
15296;DHT22;7749;49.964;7.890;2023-05-20T00:50:17;14.30;1.00
15296;DHT22;7749;49.964;7.890;2023-05-20T00:52:45;14.20;1.00
15296;DHT22;7749;49.964;7.890;2023-05-20T00:55:14;14.20;1.00
15296;DHT22;7749;49.964;7.890;2023-05-20T00:57:43;14.10;1.00
15296;DHT22;7749;49.964;7.890;2023-05-20T01:00:10;14.10;99.90
15296;DHT22;7749;49.964;7.890;2023-05-20T01:02:39;14.00;99.90
15296;DHT22;7749;49.964;7.890;2023-05-20T01:05:07;14.00;1.00
15296;DHT22;7749;49.964;7.890;2023-05-20T01:07:35;14.10;1.00
15296;DHT22;7749;49.964;7.890;2023-05-20T01:10:02;14.00;1.00
15296;DHT22;7749;49.964;7.890;2023-05-20T01:12:42;14.00;99.90
15296;DHT22;7749;49.964;7.890;2023-05-20T01:15:14;13.90;99.20
15296;DHT22;7749;49.964;7.890;2023-05-20T01:17:46;13.90;1.00
15296;DHT22;7749;49.964;7.890;2023-05-20T01:20:15;14.00;1.00
15296;DHT22;7749;49.964;7.890;2023-05-20T01:22:55;14.00;17.30
15296;DHT22;7749;49.964;7.890;2023-05-20T01:25:26;14.10;93.60
15296;DHT22;7749;49.964;7.890;2023-05-20T01:27:55;14.10;18.60
15296;DHT22;7749;49.964;7.890;2023-05-20T01:30:31;14.10;78.00
15296;DHT22;7749;49.964;7.890;2023-05-20T01:33:10;14.00;99.90
15296;DHT22;7749;49.964;7.890;2023-05-20T01:35:39;13.90;1.00
15296;DHT22;7749;49.964;7.890;2023-05-20T01:38:07;13.80;99.90
15296;DHT22;7749;49.964;7.890;2023-05-20T01:40:35;13.80;99.90
15296;DHT22;7749;49.964;7.890;2023-05-20T01:43:02;13.80;99.90
15296;DHT22;7749;49.964;7.890;2023-05-20T01:45:30;13.80;99.90
15296;DHT22;7749;49.964;7.890;2023-05-20T01:47:58;13.90;1.00
15296;DHT22;7749;49.964;7.890;2023-05-20T01:50:27;13.90;99.90
15296;DHT22;7749;49.964;7.890;2023-05-20T01:52:55;13.90;1.00
15296;DHT22;7749;49.964;7.890;2023-05-20T01:55:22;13.90;99.90
15296;DHT22;7749;49.964;7.890;2023-05-20T01:57:51;13.80;1.00
15296;DHT22;7749;49.964;7.890;2023-05-20T02:00:18;13.90;1.00
15296;DHT22;7749;49.964;7.890;2023-05-20T02:02:45;13.80;98.10
15296;DHT22;7749;49.964;7.890;2023-05-20T02:05:13;13.80;99.90
15296;DHT22;7749;49.964;7.890;2023-05-20T02:07:40;13.80;1.00
15296;DHT22;7749;49.964;7.890;2023-05-20T02:10:08;13.80;1.00
15296;DHT22;7749;49.964;7.890;2023-05-20T02:12:37;13.80;1.00
15296;DHT22;7749;49.964;7.890;2023-05-20T02:15:05;13.80;1.00
15296;DHT22;7749;49.964;7.890;2023-05-20T02:17:33;13.80;1.00
15296;DHT22;7749;49.964;7.890;2023-05-20T02:20:00;13.80;99.90
15296;DHT22;7749;49.964;7.890;2023-05-20T02:22:28;13.70;99.90
15296;DHT22;7749;49.964;7.890;2023-05-20T02:24:58;13.60;1.00
15296;DHT22;7749;49.964;7.890;2023-05-20T02:27:25;13.60;99.90
15296;DHT22;7749;49.964;7.890;2023-05-20T02:29:52;13.60;99.90
15296;DHT22;7749;49.964;7.890;2023-05-20T02:32:20;13.50;1.00
15296;DHT22;7749;49.964;7.890;2023-05-20T02:34:49;13.40;99.90
15296;DHT22;7749;49.964;7.890;2023-05-20T02:37:17;13.40;1.00
15296;DHT22;7749;49.964;7.890;2023-05-20T02:39:45;13.30;1.00
15296;DHT22;7749;49.964;7.890;2023-05-20T02:42:12;13.30;1.00
15296;DHT22;7749;49.964;7.890;2023-05-20T02:44:40;13.40;99.90
15296;DHT22;7749;49.964;7.890;2023-05-20T02:47:07;13.30;1.00
15296;DHT22;7749;49.964;7.890;2023-05-20T02:49:35;13.30;1.00
15296;DHT22;7749;49.964;7.890;2023-05-20T02:52:02;13.30;1.00
15296;DHT22;7749;49.964;7.890;2023-05-20T02:54:30;13.20;1.00
15296;DHT22;7749;49.964;7.890;2023-05-20T02:56:57;13.20;1.00
15296;DHT22;7749;49.964;7.890;2023-05-20T02:59:25;13.20;57.40
15296;DHT22;7749;49.964;7.890;2023-05-20T03:01:52;13.20;99.90
15296;DHT22;7749;49.964;7.890;2023-05-20T03:04:20;13.20;99.90
15296;DHT22;7749;49.964;7.890;2023-05-20T03:06:48;13.20;1.00
15296;DHT22;7749;49.964;7.890;2023-05-20T03:09:17;13.20;99.90
15296;DHT22;7749;49.964;7.890;2023-05-20T03:11:46;13.30;99.90
15296;DHT22;7749;49.964;7.890;2023-05-20T03:14:14;13.20;1.00
15296;DHT22;7749;49.964;7.890;2023-05-20T03:16:41;13.30;1.00
15296;DHT22;7749;49.964;7.890;2023-05-20T03:19:08;13.30;99.90
15296;DHT22;7749;49.964;7.890;2023-05-20T03:21:36;13.30;1.00
15296;DHT22;7749;49.964;7.890;2023-05-20T03:24:04;13.20;1.00
15296;DHT22;7749;49.964;7.890;2023-05-20T03:26:31;13.20;99.90
15296;DHT22;7749;49.964;7.890;2023-05-20T03:29:00;13.20;99.90
15296;DHT22;7749;49.964;7.890;2023-05-20T03:31:27;13.30;99.90
15296;DHT22;7749;49.964;7.890;2023-05-20T03:33:54;13.20;99.90
15296;DHT22;7749;49.964;7.890;2023-05-20T03:36:22;13.30;99.90
15296;DHT22;7749;49.964;7.890;2023-05-20T03:38:51;13.20;99.90
15296;DHT22;7749;49.964;7.890;2023-05-20T03:41:18;13.20;99.90
15296;DHT22;7749;49.964;7.890;2023-05-20T03:43:45;13.30;99.90
15296;DHT22;7749;49.964;7.890;2023-05-20T03:46:13;13.10;1.00
15296;DHT22;7749;49.964;7.890;2023-05-20T03:48:40;13.10;25.80
15296;DHT22;7749;49.964;7.890;2023-05-20T03:51:08;13.00;1.00
15296;DHT22;7749;49.964;7.890;2023-05-20T03:53:35;13.00;99.90
15296;DHT22;7749;49.964;7.890;2023-05-20T03:56:02;13.00;99.90
15296;DHT22;7749;49.964;7.890;2023-05-20T03:58:30;13.10;99.90
15296;DHT22;7749;49.964;7.890;2023-05-20T04:00:57;13.10;99.90
15296;DHT22;7749;49.964;7.890;2023-05-20T04:03:25;13.10;99.90
15296;DHT22;7749;49.964;7.890;2023-05-20T04:05:54;13.20;99.90
15296;DHT22;7749;49.964;7.890;2023-05-20T04:08:21;13.20;99.90
15296;DHT22;7749;49.964;7.890;2023-05-20T04:10:55;13.20;99.90
15296;DHT22;7749;49.964;7.890;2023-05-20T04:13:24;13.20;99.90
15296;DHT22;7749;49.964;7.890;2023-05-20T04:15:55;13.40;99.90
15296;DHT22;7749;49.964;7.890;2023-05-20T04:18:22;13.30;99.90
15296;DHT22;7749;49.964;7.890;2023-05-20T04:20:56;13.40;99.90
15296;DHT22;7749;49.964;7.890;2023-05-20T04:23:23;13.30;99.90
15296;DHT22;7749;49.964;7.890;2023-05-20T04:25:50;13.10;1.00
15296;DHT22;7749;49.964;7.890;2023-05-20T04:28:22;13.10;99.90
15296;DHT22;7749;49.964;7.890;2023-05-20T04:30:58;13.20;99.90
15296;DHT22;7749;49.964;7.890;2023-05-20T04:33:29;13.30;99.90
15296;DHT22;7749;49.964;7.890;2023-05-20T04:35:57;13.50;99.90
15296;DHT22;7749;49.964;7.890;2023-05-20T04:38:24;13.50;99.90
15296;DHT22;7749;49.964;7.890;2023-05-20T04:40:56;13.60;99.90
15296;DHT22;7749;49.964;7.890;2023-05-20T04:43:26;13.70;6.60
15296;DHT22;7749;49.964;7.890;2023-05-20T04:45:56;13.70;52.10
15296;DHT22;7749;49.964;7.890;2023-05-20T04:48:26;13.80;99.90
15296;DHT22;7749;49.964;7.890;2023-05-20T04:50:53;13.80;99.90
15296;DHT22;7749;49.964;7.890;2023-05-20T04:53:20;13.90;99.90
15296;DHT22;7749;49.964;7.890;2023-05-20T04:55:58;13.80;99.90
15296;DHT22;7749;49.964;7.890;2023-05-20T04:58:25;13.80;99.90
15296;DHT22;7749;49.964;7.890;2023-05-20T05:00:53;13.80;99.90
15296;DHT22;7749;49.964;7.890;2023-05-20T05:03:20;13.90;99.90
15296;DHT22;7749;49.964;7.890;2023-05-20T05:05:47;14.00;99.90
15296;DHT22;7749;49.964;7.890;2023-05-20T05:08:15;14.00;99.90
15296;DHT22;7749;49.964;7.890;2023-05-20T05:10:44;14.10;99.90
15296;DHT22;7749;49.964;7.890;2023-05-20T05:13:14;14.10;99.90
15296;DHT22;7749;49.964;7.890;2023-05-20T05:15:41;14.20;99.90
15296;DHT22;7749;49.964;7.890;2023-05-20T05:18:09;14.10;99.90
15296;DHT22;7749;49.964;7.890;2023-05-20T05:20:36;14.20;99.90
15296;DHT22;7749;49.964;7.890;2023-05-20T05:23:04;14.40;99.90
15296;DHT22;7749;49.964;7.890;2023-05-20T05:25:32;14.50;1.00
15296;DHT22;7749;49.964;7.890;2023-05-20T05:28:00;14.50;1.00
15296;DHT22;7749;49.964;7.890;2023-05-20T05:30:27;14.40;99.90
15296;DHT22;7749;49.964;7.890;2023-05-20T05:32:54;14.50;1.00
15296;DHT22;7749;49.964;7.890;2023-05-20T05:35:22;14.40;15.90
15296;DHT22;7749;49.964;7.890;2023-05-20T05:37:49;14.50;1.00
15296;DHT22;7749;49.964;7.890;2023-05-20T05:40:17;14.40;1.00
15296;DHT22;7749;49.964;7.890;2023-05-20T05:42:44;14.60;1.00
15296;DHT22;7749;49.964;7.890;2023-05-20T05:45:12;14.80;1.00
15296;DHT22;7749;49.964;7.890;2023-05-20T05:47:39;14.70;1.00
15296;DHT22;7749;49.964;7.890;2023-05-20T05:50:09;14.70;1.00
15296;DHT22;7749;49.964;7.890;2023-05-20T05:52:37;14.90;99.90
15296;DHT22;7749;49.964;7.890;2023-05-20T05:55:09;14.90;99.90
15296;DHT22;7749;49.964;7.890;2023-05-20T05:57:36;14.80;99.90
15296;DHT22;7749;49.964;7.890;2023-05-20T06:00:05;14.80;99.90
15296;DHT22;7749;49.964;7.890;2023-05-20T06:02:35;14.90;99.90
15296;DHT22;7749;49.964;7.890;2023-05-20T06:05:03;14.80;1.00
15296;DHT22;7749;49.964;7.890;2023-05-20T06:07:33;14.90;99.90
15296;DHT22;7749;49.964;7.890;2023-05-20T06:10:00;15.00;99.90
15296;DHT22;7749;49.964;7.890;2023-05-20T06:12:28;15.10;99.90
15296;DHT22;7749;49.964;7.890;2023-05-20T06:14:55;15.40;75.70
15296;DHT22;7749;49.964;7.890;2023-05-20T06:17:22;15.50;1.00
15296;DHT22;7749;49.964;7.890;2023-05-20T06:19:50;15.50;1.00
15296;DHT22;7749;49.964;7.890;2023-05-20T06:22:17;15.50;1.00
15296;DHT22;7749;49.964;7.890;2023-05-20T06:24:45;15.60;99.90
15296;DHT22;7749;49.964;7.890;2023-05-20T06:27:12;15.50;99.90
15296;DHT22;7749;49.964;7.890;2023-05-20T06:29:39;15.50;1.00
15296;DHT22;7749;49.964;7.890;2023-05-20T06:32:12;15.60;99.90
15296;DHT22;7749;49.964;7.890;2023-05-20T06:34:40;15.60;99.90
15296;DHT22;7749;49.964;7.890;2023-05-20T06:37:07;15.60;99.90
15296;DHT22;7749;49.964;7.890;2023-05-20T06:39:37;15.60;99.90
15296;DHT22;7749;49.964;7.890;2023-05-20T06:42:05;15.70;99.90
15296;DHT22;7749;49.964;7.890;2023-05-20T06:44:33;15.90;1.00
15296;DHT22;7749;49.964;7.890;2023-05-20T06:47:00;15.90;1.00
15296;DHT22;7749;49.964;7.890;2023-05-20T06:49:30;16.00;1.00
15296;DHT22;7749;49.964;7.890;2023-05-20T06:51:57;15.90;1.00
15296;DHT22;7749;49.964;7.890;2023-05-20T06:54:25;15.80;1.00
15296;DHT22;7749;49.964;7.890;2023-05-20T06:56:52;16.00;1.00
15296;DHT22;7749;49.964;7.890;2023-05-20T06:59:20;16.10;1.00
15296;DHT22;7749;49.964;7.890;2023-05-20T07:01:49;16.10;1.00
15296;DHT22;7749;49.964;7.890;2023-05-20T07:04:17;16.10;1.00
15296;DHT22;7749;49.964;7.890;2023-05-20T07:06:44;16.40;99.90
15296;DHT22;7749;49.964;7.890;2023-05-20T07:09:12;17.10;1.00
15296;DHT22;7749;49.964;7.890;2023-05-20T07:11:39;17.50;99.90
15296;DHT22;7749;49.964;7.890;2023-05-20T07:14:31;17.40;1.00
15296;DHT22;7749;49.964;7.890;2023-05-20T07:16:59;17.40;1.00
15296;DHT22;7749;49.964;7.890;2023-05-20T07:19:26;17.90;99.90
15296;DHT22;7749;49.964;7.890;2023-05-20T07:21:53;18.30;99.90
15296;DHT22;7749;49.964;7.890;2023-05-20T07:24:21;18.60;1.00
15296;DHT22;7749;49.964;7.890;2023-05-20T07:26:48;19.00;99.90
15296;DHT22;7749;49.964;7.890;2023-05-20T07:29:16;19.20;1.00
15296;DHT22;7749;49.964;7.890;2023-05-20T07:31:43;19.30;1.00
15296;DHT22;7749;49.964;7.890;2023-05-20T07:34:11;19.20;99.90
15296;DHT22;7749;49.964;7.890;2023-05-20T07:36:38;18.80;99.90
15296;DHT22;7749;49.964;7.890;2023-05-20T07:39:05;18.60;1.00
15296;DHT22;7749;49.964;7.890;2023-05-20T07:41:39;18.40;1.00
15296;DHT22;7749;49.964;7.890;2023-05-20T07:44:07;18.50;1.00
15296;DHT22;7749;49.964;7.890;2023-05-20T07:46:34;18.70;1.00
15296;DHT22;7749;49.964;7.890;2023-05-20T07:49:02;18.50;1.00
15296;DHT22;7749;49.964;7.890;2023-05-20T07:51:30;18.60;1.00
15296;DHT22;7749;49.964;7.890;2023-05-20T07:53:57;18.60;1.00
15296;DHT22;7749;49.964;7.890;2023-05-20T07:56:25;18.90;1.00
15296;DHT22;7749;49.964;7.890;2023-05-20T07:58:56;19.00;99.90
15296;DHT22;7749;49.964;7.890;2023-05-20T08:01:25;18.90;1.00
15296;DHT22;7749;49.964;7.890;2023-05-20T08:03:53;19.00;1.00
15296;DHT22;7749;49.964;7.890;2023-05-20T08:06:21;19.10;99.90
15296;DHT22;7749;49.964;7.890;2023-05-20T08:08:50;19.30;99.90
15296;DHT22;7749;49.964;7.890;2023-05-20T08:11:20;19.50;99.90
15296;DHT22;7749;49.964;7.890;2023-05-20T08:13:48;19.50;1.00
15296;DHT22;7749;49.964;7.890;2023-05-20T08:16:16;19.60;1.00
15296;DHT22;7749;49.964;7.890;2023-05-20T08:18:43;19.50;1.00
15296;DHT22;7749;49.964;7.890;2023-05-20T08:21:11;19.50;1.00
15296;DHT22;7749;49.964;7.890;2023-05-20T08:23:38;19.60;1.00
15296;DHT22;7749;49.964;7.890;2023-05-20T08:26:09;19.80;1.00
15296;DHT22;7749;49.964;7.890;2023-05-20T08:28:36;19.90;1.00
15296;DHT22;7749;49.964;7.890;2023-05-20T08:31:04;20.00;1.00
15296;DHT22;7749;49.964;7.890;2023-05-20T08:33:32;20.00;1.00
15296;DHT22;7749;49.964;7.890;2023-05-20T08:35:59;19.90;1.00
15296;DHT22;7749;49.964;7.890;2023-05-20T08:38:27;19.60;1.00
15296;DHT22;7749;49.964;7.890;2023-05-20T08:40:55;19.50;1.00
15296;DHT22;7749;49.964;7.890;2023-05-20T08:43:24;19.60;1.00
15296;DHT22;7749;49.964;7.890;2023-05-20T08:45:51;19.50;1.00
15296;DHT22;7749;49.964;7.890;2023-05-20T08:48:22;19.40;1.00
15296;DHT22;7749;49.964;7.890;2023-05-20T08:50:51;19.50;1.00
15296;DHT22;7749;49.964;7.890;2023-05-20T08:53:21;19.90;1.00
15296;DHT22;7749;49.964;7.890;2023-05-20T08:55:53;20.20;1.00
15296;DHT22;7749;49.964;7.890;2023-05-20T08:58:21;20.60;1.00
15296;DHT22;7749;49.964;7.890;2023-05-20T09:00:50;20.90;99.90
15296;DHT22;7749;49.964;7.890;2023-05-20T09:03:19;21.20;99.90
15296;DHT22;7749;49.964;7.890;2023-05-20T09:05:47;21.50;1.00
15296;DHT22;7749;49.964;7.890;2023-05-20T09:08:15;21.50;1.00
15296;DHT22;7749;49.964;7.890;2023-05-20T09:10:42;21.60;1.00
15296;DHT22;7749;49.964;7.890;2023-05-20T09:13:10;21.40;1.00
15296;DHT22;7749;49.964;7.890;2023-05-20T09:15:37;21.20;1.00
15296;DHT22;7749;49.964;7.890;2023-05-20T09:18:06;21.00;1.00
15296;DHT22;7749;49.964;7.890;2023-05-20T09:20:36;21.00;1.00
15296;DHT22;7749;49.964;7.890;2023-05-20T09:23:05;21.30;1.00
15296;DHT22;7749;49.964;7.890;2023-05-20T09:25:34;21.60;1.00
15296;DHT22;7749;49.964;7.890;2023-05-20T09:28:06;21.90;1.00
15296;DHT22;7749;49.964;7.890;2023-05-20T09:30:35;22.40;1.00
15296;DHT22;7749;49.964;7.890;2023-05-20T09:33:04;22.30;1.00
15296;DHT22;7749;49.964;7.890;2023-05-20T09:35:34;22.50;1.00
15296;DHT22;7749;49.964;7.890;2023-05-20T09:38:05;22.20;99.90
15296;DHT22;7749;49.964;7.890;2023-05-20T09:40:34;22.00;1.00
15296;DHT22;7749;49.964;7.890;2023-05-20T09:43:05;22.30;99.90
15296;DHT22;7749;49.964;7.890;2023-05-20T09:45:37;22.70;99.90
15296;DHT22;7749;49.964;7.890;2023-05-20T09:48:07;22.90;99.90
15296;DHT22;7749;49.964;7.890;2023-05-20T09:50:37;22.90;99.90
15296;DHT22;7749;49.964;7.890;2023-05-20T09:53:06;22.90;99.90
15296;DHT22;7749;49.964;7.890;2023-05-20T09:55:35;23.30;99.90
15296;DHT22;7749;49.964;7.890;2023-05-20T09:58:03;23.60;99.90
15296;DHT22;7749;49.964;7.890;2023-05-20T10:00:30;23.60;99.90
15296;DHT22;7749;49.964;7.890;2023-05-20T10:02:58;23.70;99.90
15296;DHT22;7749;49.964;7.890;2023-05-20T10:05:35;23.10;99.90
15296;DHT22;7749;49.964;7.890;2023-05-20T10:08:24;23.10;99.90
15296;DHT22;7749;49.964;7.890;2023-05-20T10:13:59;22.90;99.90
15296;DHT22;7749;49.964;7.890;2023-05-20T10:16:58;23.00;99.90
15296;DHT22;7749;49.964;7.890;2023-05-20T10:19:29;22.90;99.90
15296;DHT22;7749;49.964;7.890;2023-05-20T10:24:35;22.70;99.90
15296;DHT22;7749;49.964;7.890;2023-05-20T10:27:07;22.80;99.90
15296;DHT22;7749;49.964;7.890;2023-05-20T10:35:00;23.50;97.00
15296;DHT22;7749;49.964;7.890;2023-05-20T10:37:33;23.60;81.20
15296;DHT22;7749;49.964;7.890;2023-05-20T10:40:11;23.30;84.50
15296;DHT22;7749;49.964;7.890;2023-05-20T10:42:40;23.30;95.70
15296;DHT22;7749;49.964;7.890;2023-05-20T10:45:08;23.00;99.60
15296;DHT22;7749;49.964;7.890;2023-05-20T10:47:36;22.80;99.90
15296;DHT22;7749;49.964;7.890;2023-05-20T10:50:04;22.50;99.90
15296;DHT22;7749;49.964;7.890;2023-05-20T10:52:33;22.50;99.90
15296;DHT22;7749;49.964;7.890;2023-05-20T10:55:02;22.60;99.90
15296;DHT22;7749;49.964;7.890;2023-05-20T10:57:31;22.60;99.90
15296;DHT22;7749;49.964;7.890;2023-05-20T11:00:00;22.40;99.90
15296;DHT22;7749;49.964;7.890;2023-05-20T11:02:28;22.60;99.90
15296;DHT22;7749;49.964;7.890;2023-05-20T11:04:56;23.00;99.90
15296;DHT22;7749;49.964;7.890;2023-05-20T11:07:28;23.40;99.80
15296;DHT22;7749;49.964;7.890;2023-05-20T11:09:56;23.60;69.80
15296;DHT22;7749;49.964;7.890;2023-05-20T11:12:25;23.80;28.30
15296;DHT22;7749;49.964;7.890;2023-05-20T11:14:53;24.00;6.50
15296;DHT22;7749;49.964;7.890;2023-05-20T11:17:21;24.60;1.00
15296;DHT22;7749;49.964;7.890;2023-05-20T11:19:49;25.50;1.00
15296;DHT22;7749;49.964;7.890;2023-05-20T11:22:17;26.50;1.00
15296;DHT22;7749;49.964;7.890;2023-05-20T11:24:45;26.80;1.00
15296;DHT22;7749;49.964;7.890;2023-05-20T11:27:15;27.70;1.00
15296;DHT22;7749;49.964;7.890;2023-05-20T11:29:43;28.00;1.00
15296;DHT22;7749;49.964;7.890;2023-05-20T11:32:11;29.20;1.00
15296;DHT22;7749;49.964;7.890;2023-05-20T11:34:38;30.80;1.00
15296;DHT22;7749;49.964;7.890;2023-05-20T11:37:07;31.50;1.00
15296;DHT22;7749;49.964;7.890;2023-05-20T11:39:36;31.60;1.00
15296;DHT22;7749;49.964;7.890;2023-05-20T11:42:04;31.70;99.90
15296;DHT22;7749;49.964;7.890;2023-05-20T11:44:32;31.60;99.90
15296;DHT22;7749;49.964;7.890;2023-05-20T11:47:01;31.20;99.90
15296;DHT22;7749;49.964;7.890;2023-05-20T11:49:28;30.70;99.90
15296;DHT22;7749;49.964;7.890;2023-05-20T11:51:57;30.80;99.90
15296;DHT22;7749;49.964;7.890;2023-05-20T11:54:24;32.30;99.90
15296;DHT22;7749;49.964;7.890;2023-05-20T11:56:53;32.20;99.90
15296;DHT22;7749;49.964;7.890;2023-05-20T11:59:23;30.20;99.90
15296;DHT22;7749;49.964;7.890;2023-05-20T12:01:51;29.20;99.90
15296;DHT22;7749;49.964;7.890;2023-05-20T12:04:18;28.40;99.90
15296;DHT22;7749;49.964;7.890;2023-05-20T12:06:46;27.10;99.90
15296;DHT22;7749;49.964;7.890;2023-05-20T12:09:13;26.70;99.90
15296;DHT22;7749;49.964;7.890;2023-05-20T12:11:41;26.80;99.90
15296;DHT22;7749;49.964;7.890;2023-05-20T12:14:08;27.50;99.90
15296;DHT22;7749;49.964;7.890;2023-05-20T12:16:36;27.90;99.90
15296;DHT22;7749;49.964;7.890;2023-05-20T12:19:06;27.80;99.90
15296;DHT22;7749;49.964;7.890;2023-05-20T12:21:34;27.50;99.90
15296;DHT22;7749;49.964;7.890;2023-05-20T12:24:02;27.00;99.90
15296;DHT22;7749;49.964;7.890;2023-05-20T12:26:33;26.70;1.00
15296;DHT22;7749;49.964;7.890;2023-05-20T12:29:01;26.20;1.00
15296;DHT22;7749;49.964;7.890;2023-05-20T12:31:29;25.80;1.00
15296;DHT22;7749;49.964;7.890;2023-05-20T12:34:00;25.90;1.00
15296;DHT22;7749;49.964;7.890;2023-05-20T12:36:28;26.10;1.00
15296;DHT22;7749;49.964;7.890;2023-05-20T12:38:55;26.30;1.00
15296;DHT22;7749;49.964;7.890;2023-05-20T12:41:23;25.90;1.00
15296;DHT22;7749;49.964;7.890;2023-05-20T12:43:50;24.70;1.00
15296;DHT22;7749;49.964;7.890;2023-05-20T12:46:17;24.20;1.00
15296;DHT22;7749;49.964;7.890;2023-05-20T12:48:45;24.10;1.00
15296;DHT22;7749;49.964;7.890;2023-05-20T12:51:12;24.20;1.00
15296;DHT22;7749;49.964;7.890;2023-05-20T12:53:39;24.70;1.00
15296;DHT22;7749;49.964;7.890;2023-05-20T12:56:07;24.60;1.00
15296;DHT22;7749;49.964;7.890;2023-05-20T12:58:34;25.60;1.00
15296;DHT22;7749;49.964;7.890;2023-05-20T13:01:02;25.20;1.00
15296;DHT22;7749;49.964;7.890;2023-05-20T13:03:29;25.20;1.00
15296;DHT22;7749;49.964;7.890;2023-05-20T13:05:57;25.30;1.00
15296;DHT22;7749;49.964;7.890;2023-05-20T13:08:25;24.70;1.00
15296;DHT22;7749;49.964;7.890;2023-05-20T13:10:54;24.60;1.00
15296;DHT22;7749;49.964;7.890;2023-05-20T13:13:23;24.60;1.00
15296;DHT22;7749;49.964;7.890;2023-05-20T13:15:50;24.90;1.00
15296;DHT22;7749;49.964;7.890;2023-05-20T13:18:17;24.90;1.00
15296;DHT22;7749;49.964;7.890;2023-05-20T13:20:46;24.80;1.00
15296;DHT22;7749;49.964;7.890;2023-05-20T13:23:13;24.70;1.00
15296;DHT22;7749;49.964;7.890;2023-05-20T13:25:40;25.00;1.00
15296;DHT22;7749;49.964;7.890;2023-05-20T13:28:08;25.40;1.00
15296;DHT22;7749;49.964;7.890;2023-05-20T13:30:36;25.70;1.00
15296;DHT22;7749;49.964;7.890;2023-05-20T13:33:04;25.70;1.00
15296;DHT22;7749;49.964;7.890;2023-05-20T13:35:32;26.00;1.00
15296;DHT22;7749;49.964;7.890;2023-05-20T13:38:00;26.30;1.00
15296;DHT22;7749;49.964;7.890;2023-05-20T13:40:27;26.40;1.00
15296;DHT22;7749;49.964;7.890;2023-05-20T13:42:55;26.20;1.00
15296;DHT22;7749;49.964;7.890;2023-05-20T13:45:22;25.60;1.00
15296;DHT22;7749;49.964;7.890;2023-05-20T13:47:56;25.50;1.00
15296;DHT22;7749;49.964;7.890;2023-05-20T13:50:29;26.00;1.00
15296;DHT22;7749;49.964;7.890;2023-05-20T13:53:02;26.60;1.00
15296;DHT22;7749;49.964;7.890;2023-05-20T13:55:33;27.40;1.00
15296;DHT22;7749;49.964;7.890;2023-05-20T13:58:07;28.00;1.00
15296;DHT22;7749;49.964;7.890;2023-05-20T14:00:44;27.90;1.00
15296;DHT22;7749;49.964;7.890;2023-05-20T14:03:12;27.20;1.00
15296;DHT22;7749;49.964;7.890;2023-05-20T14:05:48;26.30;1.00
15296;DHT22;7749;49.964;7.890;2023-05-20T14:08:22;25.50;1.00
15296;DHT22;7749;49.964;7.890;2023-05-20T14:10:59;25.30;1.00
15296;DHT22;7749;49.964;7.890;2023-05-20T14:13:26;25.40;1.00
15296;DHT22;7749;49.964;7.890;2023-05-20T14:16:04;25.30;1.00
15296;DHT22;7749;49.964;7.890;2023-05-20T14:18:36;25.20;1.00
15296;DHT22;7749;49.964;7.890;2023-05-20T14:21:06;25.00;1.00
15296;DHT22;7749;49.964;7.890;2023-05-20T14:23:46;24.70;1.00
15296;DHT22;7749;49.964;7.890;2023-05-20T14:26:17;24.30;1.00
15296;DHT22;7749;49.964;7.890;2023-05-20T14:29:06;24.60;1.00
15296;DHT22;7749;49.964;7.890;2023-05-20T14:31:36;26.60;1.00
15296;DHT22;7749;49.964;7.890;2023-05-20T14:34:08;29.00;1.00
15296;DHT22;7749;49.964;7.890;2023-05-20T14:36:50;31.40;99.90
15296;DHT22;7749;49.964;7.890;2023-05-20T14:39:21;31.30;99.90
15296;DHT22;7749;49.964;7.890;2023-05-20T14:41:53;30.20;99.90
15296;DHT22;7749;49.964;7.890;2023-05-20T14:44:22;28.00;99.90
15296;DHT22;7749;49.964;7.890;2023-05-20T14:46:50;26.70;99.90
15296;DHT22;7749;49.964;7.890;2023-05-20T14:49:18;26.30;1.00
15296;DHT22;7749;49.964;7.890;2023-05-20T14:51:52;25.90;1.00
15296;DHT22;7749;49.964;7.890;2023-05-20T14:54:19;26.30;1.00
15296;DHT22;7749;49.964;7.890;2023-05-20T14:56:53;26.80;1.00
15296;DHT22;7749;49.964;7.890;2023-05-20T14:59:23;27.30;1.00
15296;DHT22;7749;49.964;7.890;2023-05-20T15:01:50;27.40;1.00
15296;DHT22;7749;49.964;7.890;2023-05-20T15:04:28;28.60;99.90
15296;DHT22;7749;49.964;7.890;2023-05-20T15:06:56;30.00;99.90
15296;DHT22;7749;49.964;7.890;2023-05-20T15:09:25;30.80;99.90
15296;DHT22;7749;49.964;7.890;2023-05-20T15:12:03;31.70;99.90
15296;DHT22;7749;49.964;7.890;2023-05-20T15:14:40;31.10;99.90
15296;DHT22;7749;49.964;7.890;2023-05-20T15:17:19;29.80;99.90
15296;DHT22;7749;49.964;7.890;2023-05-20T15:19:58;28.90;99.90
15296;DHT22;7749;49.964;7.890;2023-05-20T15:22:32;27.80;99.90
15296;DHT22;7749;49.964;7.890;2023-05-20T15:25:25;27.10;99.90
15296;DHT22;7749;49.964;7.890;2023-05-20T15:27:52;26.50;99.90
15296;DHT22;7749;49.964;7.890;2023-05-20T15:30:25;25.90;99.90
15296;DHT22;7749;49.964;7.890;2023-05-20T15:32:52;25.60;99.90
15296;DHT22;7749;49.964;7.890;2023-05-20T15:35:27;25.70;99.90
15296;DHT22;7749;49.964;7.890;2023-05-20T15:38:10;25.50;1.00
15296;DHT22;7749;49.964;7.890;2023-05-20T15:40:40;25.70;1.00
15296;DHT22;7749;49.964;7.890;2023-05-20T15:43:22;25.70;1.00
15296;DHT22;7749;49.964;7.890;2023-05-20T15:46:03;26.20;1.00
15296;DHT22;7749;49.964;7.890;2023-05-20T15:48:40;28.00;99.90
15296;DHT22;7749;49.964;7.890;2023-05-20T15:51:08;30.40;99.90
15296;DHT22;7749;49.964;7.890;2023-05-20T15:53:47;31.30;99.90
15296;DHT22;7749;49.964;7.890;2023-05-20T15:56:28;32.00;99.90
15296;DHT22;7749;49.964;7.890;2023-05-20T15:58:59;31.10;99.90
15296;DHT22;7749;49.964;7.890;2023-05-20T16:01:26;31.60;99.90
15296;DHT22;7749;49.964;7.890;2023-05-20T16:03:54;31.80;99.90
15296;DHT22;7749;49.964;7.890;2023-05-20T16:06:27;31.70;99.90
15296;DHT22;7749;49.964;7.890;2023-05-20T16:09:00;30.10;99.90
15296;DHT22;7749;49.964;7.890;2023-05-20T16:11:32;29.20;99.90
15296;DHT22;7749;49.964;7.890;2023-05-20T16:14:05;30.50;99.90
15296;DHT22;7749;49.964;7.890;2023-05-20T16:16:37;32.30;99.90
15296;DHT22;7749;49.964;7.890;2023-05-20T16:19:07;33.30;99.90